Time;durP1;ratioP1;P1;durP2;ratioP2;P2;SDS_P1;SDS_P2;PMS_P1;PMS_P2;Temp;Humidity;BMP_temperature;BMP_pressure;BME280_temperature;BME280_humidity;BME280_pressure;Samples;Min_cycle;Max_cycle;Signal;HPM_P1;HPM_P2
2023/08/16 00:00:37;;;;;;;;;;;24.40;1.00;;;;;;4899411;29;19931;-49
2023/08/16 00:03:04;;;;;;;;;;;24.40;1.00;;;;;;4883055;29;19923;-47
2023/08/16 00:05:32;;;;;;;;;;;24.40;1.00;;;;;;4899485;29;19975;-49
2023/08/16 00:07:59;;;;;;;;;;;24.40;1.00;;;;;;4899486;29;20455;-51
2023/08/16 00:10:26;;;;;;;;;;;24.40;1.00;;;;;;4899261;29;20455;-49
2023/08/16 00:12:53;;;;;;;;;;;24.40;1.00;;;;;;4899585;29;20026;-50
2023/08/16 00:15:19;;;;;;;;;;;24.40;1.00;;;;;;4899242;29;19981;-47
2023/08/16 00:17:47;;;;;;;;;;;24.40;1.00;;;;;;4899520;29;20449;-51
2023/08/16 00:20:15;;;;;;;;;;;24.40;1.00;;;;;;4899428;29;19952;-48
2023/08/16 00:22:42;;;;;;;;;;;24.40;1.00;;;;;;4899422;29;19934;-49
2023/08/16 00:25:10;;;;;;;;;;;24.40;1.00;;;;;;4899111;29;19923;-47
2023/08/16 00:27:37;;;;;;;;;;;24.40;1.00;;;;;;4899449;29;20261;-50
2023/08/16 00:30:05;;;;;;;;;;;24.40;1.00;;;;;;4882448;29;19958;-47
2023/08/16 00:32:32;;;;;;;;;;;24.40;1.00;;;;;;4882170;29;19928;-47
2023/08/16 00:34:59;;;;;;;;;;;24.30;1.00;;;;;;4882345;29;20351;-52
2023/08/16 00:37:26;;;;;;;;;;;24.30;1.00;;;;;;4899391;29;19953;-52
2023/08/16 00:39:52;;;;;;;;;;;24.40;1.00;;;;;;4882145;29;19973;-52
2023/08/16 00:42:20;;;;;;;;;;;24.30;1.00;;;;;;4882030;29;19931;-49
2023/08/16 00:44:47;;;;;;;;;;;24.30;1.00;;;;;;4887018;29;19922;-45
2023/08/16 00:47:15;;;;;;;;;;;24.30;1.00;;;;;;4883535;29;19988;-45
2023/08/16 00:49:41;;;;;;;;;;;24.30;1.00;;;;;;4881896;29;19923;-49
2023/08/16 00:52:09;;;;;;;;;;;24.30;1.00;;;;;;4898651;29;19923;-50
2023/08/16 00:54:37;;;;;;;;;;;24.30;1.00;;;;;;4898936;29;20010;-47
2023/08/16 00:57:04;;;;;;;;;;;24.30;1.00;;;;;;4881784;29;19923;-46
2023/08/16 00:59:31;;;;;;;;;;;24.30;1.00;;;;;;4881724;29;19923;-50
2023/08/16 01:01:58;;;;;;;;;;;24.30;1.00;;;;;;4881379;29;20131;-51
2023/08/16 01:04:25;;;;;;;;;;;24.30;1.00;;;;;;4881573;29;19927;-49
2023/08/16 01:06:57;;;;;;;;;;;24.30;1.00;;;;;;4881794;29;19927;-52
2023/08/16 01:09:25;;;;;;;;;;;24.30;1.00;;;;;;4881481;29;19931;-47
2023/08/16 01:11:55;;;;;;;;;;;24.30;1.00;;;;;;4887403;29;19923;-48
2023/08/16 01:14:36;;;;;;;;;;;24.30;1.00;;;;;;4896308;29;19958;-49
2023/08/16 01:17:04;;;;;;;;;;;24.30;1.00;;;;;;4881833;29;19935;-50
2023/08/16 01:19:32;;;;;;;;;;;24.20;1.00;;;;;;4881515;29;19927;-45
2023/08/16 01:22:02;;;;;;;;;;;24.30;1.00;;;;;;4881260;29;19931;-47
2023/08/16 01:24:38;;;;;;;;;;;24.20;1.00;;;;;;4882821;29;19930;-52
2023/08/16 01:27:05;;;;;;;;;;;24.20;1.00;;;;;;4901325;29;20335;-47
2023/08/16 01:29:32;;;;;;;;;;;24.20;1.00;;;;;;4898172;29;19939;-45
2023/08/16 01:31:59;;;;;;;;;;;24.20;1.00;;;;;;4881213;29;20427;-48
2023/08/16 01:34:26;;;;;;;;;;;24.20;1.00;;;;;;4897908;29;20415;-49
2023/08/16 01:36:52;;;;;;;;;;;24.20;1.00;;;;;;4887355;29;20417;-50
2023/08/16 01:39:19;;;;;;;;;;;24.20;1.00;;;;;;4899226;29;19927;-52
2023/08/16 01:41:49;;;;;;;;;;;24.20;1.00;;;;;;4897846;29;20355;-52
2023/08/16 01:44:17;;;;;;;;;;;24.20;1.00;;;;;;4897958;29;19923;-46
2023/08/16 01:46:45;;;;;;;;;;;24.20;1.00;;;;;;4881040;29;19923;-47
2023/08/16 01:49:13;;;;;;;;;;;24.20;1.00;;;;;;4897580;29;20033;-50
2023/08/16 01:51:39;;;;;;;;;;;24.20;1.00;;;;;;4880963;29;19931;-49
2023/08/16 01:54:06;;;;;;;;;;;24.20;1.00;;;;;;4897814;29;20358;-47
2023/08/16 01:56:33;;;;;;;;;;;24.20;1.00;;;;;;4880572;29;19949;-47
2023/08/16 01:59:00;;;;;;;;;;;24.20;1.00;;;;;;4897574;29;20300;-49
2023/08/16 02:01:26;;;;;;;;;;;24.20;1.00;;;;;;4880537;29;20018;-48
2023/08/16 02:03:53;;;;;;;;;;;24.20;1.00;;;;;;4897642;29;19923;-46
2023/08/16 02:06:21;;;;;;;;;;;24.20;1.00;;;;;;4880714;29;19930;-51
2023/08/16 02:08:48;;;;;;;;;;;24.20;1.00;;;;;;4881108;29;19927;-45
2023/08/16 02:11:15;;;;;;;;;;;24.10;1.00;;;;;;4883051;29;19962;-45
2023/08/16 02:13:41;;;;;;;;;;;24.10;1.00;;;;;;4889735;29;19930;-45
2023/08/16 02:16:09;;;;;;;;;;;24.10;1.00;;;;;;4882112;29;19930;-54
2023/08/16 02:18:36;;;;;;;;;;;24.10;1.00;;;;;;4880552;29;19923;-46
2023/08/16 02:21:03;;;;;;;;;;;24.10;1.00;;;;;;4880500;29;19927;-48
2023/08/16 02:23:30;;;;;;;;;;;24.10;1.00;;;;;;4880434;29;19931;-45
2023/08/16 02:25:57;;;;;;;;;;;24.10;1.00;;;;;;4880345;29;20010;-46
2023/08/16 02:28:24;;;;;;;;;;;24.10;1.00;;;;;;4897157;29;20303;-48
2023/08/16 02:30:50;;;;;;;;;;;24.10;1.00;;;;;;4885444;29;19927;-48
2023/08/16 02:33:17;;;;;;;;;;;24.10;1.00;;;;;;4882758;29;20022;-51
2023/08/16 02:35:44;;;;;;;;;;;24.10;1.00;;;;;;4897234;29;19931;-49
2023/08/16 02:38:11;;;;;;;;;;;24.10;1.00;;;;;;4880310;29;19930;-46
2023/08/16 02:40:38;;;;;;;;;;;24.00;1.00;;;;;;4896873;29;19924;-47
2023/08/16 02:43:05;;;;;;;;;;;24.00;1.00;;;;;;4897199;29;20359;-49
2023/08/16 02:45:34;;;;;;;;;;;24.00;1.00;;;;;;4896943;29;19979;-49
2023/08/16 02:48:01;;;;;;;;;;;24.00;1.00;;;;;;4880320;29;19927;-51
2023/08/16 02:50:28;;;;;;;;;;;24.00;1.00;;;;;;4881366;29;20026;-44
2023/08/16 02:52:54;;;;;;;;;;;24.00;1.00;;;;;;4880355;29;19927;-48
2023/08/16 02:55:21;;;;;;;;;;;24.00;1.00;;;;;;4896721;29;19979;-48
2023/08/16 02:57:48;;;;;;;;;;;24.00;1.00;;;;;;4880335;29;20443;-47
2023/08/16 03:00:15;;;;;;;;;;;24.00;1.00;;;;;;4880152;29;19930;-49
2023/08/16 03:02:42;;;;;;;;;;;24.00;1.00;;;;;;4879903;29;20331;-50
2023/08/16 03:05:10;;;;;;;;;;;24.00;1.00;;;;;;4886986;29;19927;-47
2023/08/16 03:07:36;;;;;;;;;;;24.00;1.00;;;;;;4897124;29;19924;-47
2023/08/16 03:10:04;;;;;;;;;;;24.00;1.00;;;;;;4883493;29;20014;-48
2023/08/16 03:12:30;;;;;;;;;;;24.00;1.00;;;;;;4883489;29;19924;-50
2023/08/16 03:14:58;;;;;;;;;;;24.00;1.00;;;;;;4883575;29;20008;-46
2023/08/16 03:17:25;;;;;;;;;;;24.00;1.00;;;;;;4900454;29;19930;-47
2023/08/16 03:19:52;;;;;;;;;;;24.00;1.00;;;;;;4891351;29;19939;-46
2023/08/16 03:22:18;;;;;;;;;;;23.90;1.00;;;;;;4883399;29;19978;-49
2023/08/16 03:24:47;;;;;;;;;;;23.90;1.00;;;;;;4883485;29;19924;-50
2023/08/16 03:27:14;;;;;;;;;;;23.90;1.00;;;;;;4868116;29;19986;-49
2023/08/16 03:29:41;;;;;;;;;;;23.90;1.00;;;;;;4883470;29;19927;-52
2023/08/16 03:32:08;;;;;;;;;;;23.90;1.00;;;;;;4900274;29;19923;-50
2023/08/16 03:34:34;;;;;;;;;;;23.90;1.00;;;;;;4883288;29;19980;-50
2023/08/16 03:37:01;;;;;;;;;;;23.90;1.00;;;;;;4883314;29;19923;-49
2023/08/16 03:39:28;;;;;;;;;;;23.90;1.00;;;;;;4883210;29;20019;-48
2023/08/16 03:41:55;;;;;;;;;;;23.90;1.00;;;;;;4882869;29;19923;-50
2023/08/16 03:44:22;;;;;;;;;;;23.90;1.00;;;;;;4883186;29;19923;-51
2023/08/16 03:46:48;;;;;;;;;;;23.90;1.00;;;;;;4883211;29;20193;-51
2023/08/16 03:49:15;;;;;;;;;;;23.90;1.00;;;;;;4899821;29;20410;-51
2023/08/16 03:51:42;;;;;;;;;;;23.90;1.00;;;;;;4899597;29;19930;-49
2023/08/16 03:54:09;;;;;;;;;;;23.90;1.00;;;;;;4899931;29;20426;-50
2023/08/16 03:56:36;;;;;;;;;;;23.80;1.00;;;;;;4882932;29;20430;-47
2023/08/16 03:59:02;;;;;;;;;;;23.80;1.00;;;;;;4882834;29;19923;-51
2023/08/16 04:01:29;;;;;;;;;;;23.80;1.00;;;;;;4882754;29;19923;-49
2023/08/16 04:03:56;;;;;;;;;;;23.80;1.00;;;;;;4882872;29;19923;-48
2023/08/16 04:06:23;;;;;;;;;;;23.80;1.00;;;;;;4899395;29;20375;-47
2023/08/16 04:08:50;;;;;;;;;;;23.80;1.00;;;;;;4879927;29;19927;-51
2023/08/16 04:11:16;;;;;;;;;;;23.80;1.00;;;;;;4894333;29;19924;-51
2023/08/16 04:13:43;;;;;;;;;;;23.80;1.00;;;;;;4898661;29;20335;-48
2023/08/16 04:16:10;;;;;;;;;;;23.70;1.00;;;;;;4876717;29;19923;-49
2023/08/16 04:18:37;;;;;;;;;;;23.70;1.00;;;;;;4913322;29;19945;-44
2023/08/16 04:21:04;;;;;;;;;;;23.60;1.00;;;;;;4882162;29;19932;-46
2023/08/16 04:23:31;;;;;;;;;;;23.60;1.00;;;;;;4882311;29;19923;-52
2023/08/16 04:25:57;;;;;;;;;;;23.60;1.00;;;;;;4897834;29;20391;-46
2023/08/16 04:28:24;;;;;;;;;;;23.50;1.00;;;;;;4881723;29;19932;-45
2023/08/16 04:30:52;;;;;;;;;;;23.50;1.00;;;;;;4881549;29;20089;-45
2023/08/16 04:33:19;;;;;;;;;;;23.50;1.00;;;;;;4882238;29;19923;-46
2023/08/16 04:35:45;;;;;;;;;;;23.50;1.00;;;;;;4898904;29;19924;-48
2023/08/16 04:38:12;;;;;;;;;;;23.50;1.00;;;;;;4882332;29;20376;-44
2023/08/16 04:40:40;;;;;;;;;;;23.50;1.00;;;;;;4881838;29;19923;-43
2023/08/16 04:43:06;;;;;;;;;;;23.50;1.00;;;;;;4882106;29;19923;-45
2023/08/16 04:45:34;;;;;;;;;;;23.50;1.00;;;;;;4898781;29;19924;-45
2023/08/16 04:48:00;;;;;;;;;;;23.50;1.00;;;;;;4881698;29;20034;-45
2023/08/16 04:50:27;;;;;;;;;;;23.40;1.00;;;;;;4881609;29;19930;-43
2023/08/16 04:52:56;;;;;;;;;;;23.40;1.00;;;;;;4882216;29;19923;-45
2023/08/16 04:55:24;;;;;;;;;;;23.40;1.00;;;;;;4881829;29;19934;-57
2023/08/16 04:57:51;;;;;;;;;;;23.40;1.00;;;;;;4882129;29;20372;-47
2023/08/16 05:00:19;;;;;;;;;;;23.40;1.00;;;;;;4881616;29;19975;-45
2023/08/16 05:02:59;;;;;;;;;;;23.40;1.00;;;;;;4882034;29;19930;-47
2023/08/16 05:05:26;;;;;;;;;;;23.40;1.00;;;;;;4881500;29;20010;-46
2023/08/16 05:07:54;;;;;;;;;;;23.40;1.00;;;;;;4881760;29;20363;-49
2023/08/16 05:10:21;;;;;;;;;;;23.40;1.00;;;;;;4881595;29;19930;-44
2023/08/16 05:12:49;;;;;;;;;;;23.40;1.00;;;;;;4883803;29;19927;-44
2023/08/16 05:15:16;;;;;;;;;;;23.40;1.00;;;;;;4885215;29;19929;-45
2023/08/16 05:17:43;;;;;;;;;;;23.40;1.00;;;;;;4881260;29;19930;-45
2023/08/16 05:20:10;;;;;;;;;;;23.40;1.00;;;;;;4881290;29;20010;-45
2023/08/16 05:22:37;;;;;;;;;;;23.40;1.00;;;;;;4881313;29;19970;-45
2023/08/16 05:25:04;;;;;;;;;;;23.40;1.00;;;;;;4898015;29;19966;-46
2023/08/16 05:27:30;;;;;;;;;;;23.40;1.00;;;;;;4898677;29;19972;-45
2023/08/16 05:29:58;;;;;;;;;;;23.40;1.00;;;;;;4905201;29;19924;-46
2023/08/16 05:32:25;;;;;;;;;;;23.40;1.00;;;;;;4897614;29;19934;-47
2023/08/16 05:34:53;;;;;;;;;;;23.40;1.00;;;;;;4897811;29;19950;-45
2023/08/16 05:37:20;;;;;;;;;;;23.40;1.00;;;;;;4898008;29;19959;-45
2023/08/16 05:39:47;;;;;;;;;;;23.30;1.00;;;;;;4896120;29;19932;-47
2023/08/16 05:42:14;;;;;;;;;;;23.40;1.00;;;;;;4896554;29;20041;-45
2023/08/16 05:44:41;;;;;;;;;;;23.40;1.00;;;;;;4897478;29;19927;-47
2023/08/16 05:47:08;;;;;;;;;;;23.40;1.00;;;;;;4897703;29;19958;-46
2023/08/16 05:49:34;;;;;;;;;;;23.40;1.00;;;;;;4897661;29;19963;-45
2023/08/16 05:52:01;;;;;;;;;;;23.40;1.00;;;;;;4897616;29;19923;-44
2023/08/16 05:54:28;;;;;;;;;;;23.40;1.00;;;;;;4897693;29;19923;-46
2023/08/16 05:56:54;;;;;;;;;;;23.40;1.00;;;;;;4897469;29;20029;-47
2023/08/16 05:59:21;;;;;;;;;;;23.40;1.00;;;;;;4897554;29;19923;-47
2023/08/16 06:01:48;;;;;;;;;;;23.30;1.00;;;;;;4897289;29;20387;-45
2023/08/16 06:04:15;;;;;;;;;;;23.40;1.00;;;;;;4897634;29;20419;-45
2023/08/16 06:06:41;;;;;;;;;;;23.40;1.00;;;;;;4897402;29;20023;-45
2023/08/16 06:09:08;;;;;;;;;;;23.40;1.00;;;;;;4897555;29;19923;-47
2023/08/16 06:11:36;;;;;;;;;;;23.40;1.00;;;;;;4897230;29;19927;-46
2023/08/16 06:14:03;;;;;;;;;;;23.40;1.00;;;;;;4905310;29;20023;-50
2023/08/16 06:16:29;;;;;;;;;;;23.40;1.00;;;;;;4897222;29;19923;-46
2023/08/16 06:18:56;;;;;;;;;;;23.40;1.00;;;;;;4897412;29;19923;-45
2023/08/16 06:21:23;;;;;;;;;;;23.40;1.00;;;;;;4897198;29;19924;-45
2023/08/16 06:23:51;;;;;;;;;;;23.40;1.00;;;;;;4897253;29;19923;-47
2023/08/16 06:26:17;;;;;;;;;;;23.40;1.00;;;;;;4897305;29;19931;-47
2023/08/16 06:28:46;;;;;;;;;;;23.40;1.00;;;;;;4905068;29;20014;-47
2023/08/16 06:31:13;;;;;;;;;;;23.40;1.00;;;;;;4897015;29;19979;-45
2023/08/16 06:33:43;;;;;;;;;;;23.40;1.00;;;;;;4897114;29;19923;-45
2023/08/16 06:36:10;;;;;;;;;;;23.40;1.00;;;;;;4900172;29;19927;-47
2023/08/16 06:38:36;;;;;;;;;;;23.40;1.00;;;;;;4899808;29;19923;-46
2023/08/16 06:41:03;;;;;;;;;;;23.40;1.00;;;;;;4897056;29;19923;-44
2023/08/16 06:43:30;;;;;;;;;;;23.40;1.00;;;;;;4898342;29;20018;-46
2023/08/16 06:45:57;;;;;;;;;;;23.40;1.00;;;;;;4900979;29;20311;-45
2023/08/16 06:48:24;;;;;;;;;;;23.40;1.00;;;;;;4901127;29;20010;-47
2023/08/16 06:50:50;;;;;;;;;;;23.40;1.00;;;;;;4900649;29;19966;-45
2023/08/16 06:53:17;;;;;;;;;;;23.40;1.00;;;;;;4901378;29;20264;-45
2023/08/16 06:55:44;;;;;;;;;;;23.40;1.00;;;;;;4900540;29;20010;-45
2023/08/16 06:58:11;;;;;;;;;;;23.40;1.00;;;;;;4900969;29;19963;-45
2023/08/16 07:00:41;;;;;;;;;;;23.40;1.00;;;;;;4900408;29;19938;-45
2023/08/16 07:03:08;;;;;;;;;;;23.40;1.00;;;;;;4900946;29;19947;-45
2023/08/16 07:05:35;;;;;;;;;;;23.40;1.00;;;;;;4900570;29;19963;-46
2023/08/16 07:08:02;;;;;;;;;;;23.40;1.00;;;;;;4884043;29;20321;-45
2023/08/16 07:10:29;;;;;;;;;;;23.50;1.00;;;;;;4907523;29;19923;-45
2023/08/16 07:12:55;;;;;;;;;;;23.50;1.00;;;;;;4901243;29;20438;-46
2023/08/16 07:15:22;;;;;;;;;;;23.50;1.00;;;;;;4900382;29;19923;-45
2023/08/16 07:17:49;;;;;;;;;;;23.50;1.00;;;;;;4883766;29;19930;-45
2023/08/16 07:20:16;;;;;;;;;;;23.50;1.00;;;;;;4900518;29;20026;-45
2023/08/16 07:22:42;;;;;;;;;;;23.50;1.00;;;;;;4900261;29;19930;-49
2023/08/16 07:25:10;;;;;;;;;;;23.50;1.00;;;;;;4900376;29;20023;-45
2023/08/16 07:27:37;;;;;;;;;;;23.50;1.00;;;;;;4900284;29;19984;-46
2023/08/16 07:30:04;;;;;;;;;;;23.50;1.00;;;;;;4900169;29;20014;-44
2023/08/16 07:32:34;;;;;;;;;;;23.60;1.00;;;;;;4900210;29;19929;-44
2023/08/16 07:35:03;;;;;;;;;;;23.60;1.00;;;;;;4989773;23;19965;-45
2023/08/16 07:37:31;;;;;;;;;;;23.60;1.00;;;;;;4904701;29;19923;-44
2023/08/16 07:39:59;;;;;;;;;;;23.60;1.00;;;;;;4883206;29;19967;-44
2023/08/16 07:42:26;;;;;;;;;;;23.60;1.00;;;;;;4900156;29;19989;-45
2023/08/16 07:44:53;;;;;;;;;;;23.60;1.00;;;;;;4901627;29;20340;-45
2023/08/16 07:47:20;;;;;;;;;;;23.60;1.00;;;;;;4888714;29;20396;-46
2023/08/16 07:49:47;;;;;;;;;;;23.60;1.00;;;;;;4901442;29;19924;-47
2023/08/16 07:52:14;;;;;;;;;;;23.60;1.00;;;;;;4901474;29;19924;-48
2023/08/16 07:54:40;;;;;;;;;;;23.60;1.00;;;;;;4900943;29;19927;-45
2023/08/16 07:57:07;;;;;;;;;;;23.60;1.00;;;;;;4901166;29;19923;-46
2023/08/16 07:59:35;;;;;;;;;;;23.60;1.00;;;;;;4901212;29;20129;-45
2023/08/16 08:02:01;;;;;;;;;;;23.60;1.00;;;;;;4901394;29;19979;-47
2023/08/16 08:04:28;;;;;;;;;;;23.60;1.00;;;;;;4901757;29;19923;-46
2023/08/16 08:06:56;;;;;;;;;;;23.60;1.00;;;;;;4907698;29;19958;-44
2023/08/16 08:09:23;;;;;;;;;;;23.60;1.00;;;;;;4899605;29;19961;-45
2023/08/16 08:11:49;;;;;;;;;;;23.70;1.00;;;;;;4899783;29;19979;-47
2023/08/16 08:14:16;;;;;;;;;;;23.70;1.00;;;;;;4899605;29;20307;-45
2023/08/16 08:16:43;;;;;;;;;;;23.70;1.00;;;;;;4899486;29;19924;-46
2023/08/16 08:19:10;;;;;;;;;;;23.70;1.00;;;;;;4899480;29;19929;-48
2023/08/16 08:21:37;;;;;;;;;;;23.70;1.00;;;;;;4899496;29;19923;-45
2023/08/16 08:24:04;;;;;;;;;;;23.70;1.00;;;;;;4899585;29;19933;-46
2023/08/16 08:26:31;;;;;;;;;;;23.70;1.00;;;;;;4899463;29;19930;-44
2023/08/16 08:28:57;;;;;;;;;;;23.70;1.00;;;;;;4899156;29;20129;-50
2023/08/16 08:31:24;;;;;;;;;;;23.70;1.00;;;;;;4899389;29;19928;-48
2023/08/16 08:33:51;;;;;;;;;;;23.70;1.00;;;;;;4882494;29;19923;-47
2023/08/16 08:36:18;;;;;;;;;;;23.70;1.00;;;;;;4898999;29;19934;-45
2023/08/16 08:38:44;;;;;;;;;;;23.70;1.00;;;;;;4899522;29;19923;-45
2023/08/16 08:41:11;;;;;;;;;;;23.70;1.00;;;;;;4905280;29;20358;-45
2023/08/16 08:43:38;;;;;;;;;;;23.70;1.00;;;;;;4895255;29;19934;-50
2023/08/16 08:46:27;;;;;;;;;;;23.70;1.00;;;;;;4898949;29;19924;-50
2023/08/16 08:48:54;;;;;;;;;;;23.70;1.00;;;;;;4899263;29;20367;-50
2023/08/16 08:51:22;;;;;;;;;;;23.70;1.00;;;;;;4899052;29;20310;-49
2023/08/16 08:53:48;;;;;;;;;;;23.70;1.00;;;;;;4899488;29;19966;-52
2023/08/16 08:56:17;;;;;;;;;;;23.70;1.00;;;;;;4898937;29;19979;-50
2023/08/16 08:58:46;;;;;;;;;;;23.70;1.00;;;;;;4898516;29;19923;-45
2023/08/16 09:01:20;;;;;;;;;;;23.70;1.00;;;;;;4898631;29;19923;-51
2023/08/16 09:03:48;;;;;;;;;;;23.70;1.00;;;;;;4899059;29;19934;-48
2023/08/16 09:06:15;;;;;;;;;;;23.70;1.00;;;;;;4905038;29;19948;-47
2023/08/16 09:08:43;;;;;;;;;;;23.70;1.00;;;;;;4898525;29;19923;-48
2023/08/16 09:11:10;;;;;;;;;;;23.70;1.00;;;;;;4898247;29;19923;-50
2023/08/16 09:13:37;;;;;;;;;;;23.70;1.00;;;;;;4898522;29;19931;-48
2023/08/16 09:16:04;;;;;;;;;;;23.80;1.00;;;;;;4898557;29;19923;-45
2023/08/16 09:18:31;;;;;;;;;;;23.80;1.00;;;;;;4898724;29;20395;-45
2023/08/16 09:20:58;;;;;;;;;;;23.80;1.00;;;;;;4898174;29;19943;-45
2023/08/16 09:23:24;;;;;;;;;;;23.80;1.00;;;;;;4898162;29;19927;-47
2023/08/16 09:25:51;;;;;;;;;;;23.80;1.00;;;;;;4898202;29;19928;-45
2023/08/16 09:28:18;;;;;;;;;;;23.70;1.00;;;;;;4898196;29;19924;-51
2023/08/16 09:30:45;;;;;;;;;;;23.80;1.00;;;;;;4905673;29;20013;-46
2023/08/16 09:33:12;;;;;;;;;;;23.80;1.00;;;;;;4891433;29;20356;-44
2023/08/16 09:35:48;;;;;;;;;;;23.80;1.00;;;;;;4883639;29;19994;-45
2023/08/16 09:38:18;;;;;;;;;;;23.80;1.00;;;;;;4898532;29;19923;-46
2023/08/16 09:41:03;;;;;;;;;;;23.80;1.00;;;;;;4899822;29;20310;-57
2023/08/16 09:43:31;;;;;;;;;;;23.80;1.00;;;;;;4898603;29;20322;-51
2023/08/16 09:45:58;;;;;;;;;;;23.80;1.00;;;;;;4897852;29;20367;-46
2023/08/16 09:48:27;;;;;;;;;;;23.80;1.00;;;;;;4897940;29;19927;-50
2023/08/16 09:51:01;;;;;;;;;;;23.80;1.00;;;;;;4898181;29;19923;-50
2023/08/16 09:53:44;;;;;;;;;;;23.80;1.00;;;;;;4902823;29;19927;-50
2023/08/16 09:56:14;;;;;;;;;;;23.80;1.00;;;;;;4897694;29;19951;-47
2023/08/16 09:58:44;;;;;;;;;;;23.80;1.00;;;;;;4897735;29;20291;-49
2023/08/16 10:01:11;;;;;;;;;;;23.80;1.00;;;;;;4897484;29;19935;-51
2023/08/16 10:03:41;;;;;;;;;;;23.80;1.00;;;;;;4897790;29;19924;-50
2023/08/16 10:06:24;;;;;;;;;;;23.80;1.00;;;;;;4897599;29;19923;-50
2023/08/16 10:09:05;;;;;;;;;;;23.80;1.00;;;;;;4905411;29;19967;-45
2023/08/16 10:11:33;;;;;;;;;;;23.80;1.00;;;;;;4897296;29;19929;-45
2023/08/16 10:14:02;;;;;;;;;;;23.80;1.00;;;;;;4897333;29;19927;-46
2023/08/16 10:16:30;;;;;;;;;;;23.80;1.00;;;;;;4905087;29;19931;-44
2023/08/16 10:18:59;;;;;;;;;;;23.80;1.00;;;;;;4897174;29;19951;-48
2023/08/16 10:21:27;;;;;;;;;;;23.80;1.00;;;;;;4897085;29;19950;-46
2023/08/16 10:23:55;;;;;;;;;;;23.80;1.00;;;;;;4905129;29;19923;-49
2023/08/16 10:26:24;;;;;;;;;;;23.90;1.00;;;;;;4897000;29;20374;-45
2023/08/16 10:28:52;;;;;;;;;;;23.90;1.00;;;;;;4897112;29;20022;-49
2023/08/16 10:31:20;;;;;;;;;;;23.90;1.00;;;;;;4897041;29;19930;-43
2023/08/16 10:33:48;;;;;;;;;;;23.90;1.00;;;;;;4897378;29;19931;-43
2023/08/16 10:36:16;;;;;;;;;;;23.90;1.00;;;;;;4897005;29;19927;-49
2023/08/16 10:38:43;;;;;;;;;;;23.90;1.00;;;;;;4896817;29;19946;-44
2023/08/16 10:41:20;;;;;;;;;;;23.90;1.00;;;;;;4896753;29;19923;-48
2023/08/16 10:43:48;;;;;;;;;;;23.90;1.00;;;;;;4897150;29;20423;-45
2023/08/16 10:46:25;;;;;;;;;;;23.90;1.00;;;;;;4896884;29;19927;-52
2023/08/16 10:48:58;;;;;;;;;;;23.90;1.00;;;;;;4896963;29;20295;-50
2023/08/16 10:51:29;;;;;;;;;;;23.80;1.00;;;;;;4896899;29;19971;-48
2023/08/16 10:53:56;;;;;;;;;;;23.90;1.00;;;;;;4896936;29;20387;-47
2023/08/16 10:56:23;;;;;;;;;;;23.90;1.00;;;;;;4879966;29;20291;-49
2023/08/16 10:58:50;;;;;;;;;;;23.90;1.00;;;;;;4897038;29;19950;-48
2023/08/16 11:01:18;;;;;;;;;;;23.90;1.00;;;;;;4896679;29;19967;-45
2023/08/16 11:03:46;;;;;;;;;;;23.90;1.00;;;;;;4897112;29;19923;-44
2023/08/16 11:06:13;;;;;;;;;;;23.90;1.00;;;;;;4896705;29;19923;-50
2023/08/16 11:08:44;;;;;;;;;;;23.90;1.00;;;;;;4896868;29;20388;-45
2023/08/16 11:11:12;;;;;;;;;;;23.90;1.00;;;;;;4896695;29;20014;-45
2023/08/16 11:13:39;;;;;;;;;;;23.90;1.00;;;;;;4896817;29;19923;-44
2023/08/16 11:16:10;;;;;;;;;;;23.90;1.00;;;;;;4896679;29;19923;-48
2023/08/16 11:18:38;;;;;;;;;;;23.90;1.00;;;;;;4896836;29;19923;-45
2023/08/16 11:21:10;;;;;;;;;;;23.90;1.00;;;;;;4896625;29;20173;-45
2023/08/16 11:23:39;;;;;;;;;;;23.90;1.00;;;;;;4896666;29;19946;-46
2023/08/16 11:26:07;;;;;;;;;;;23.90;1.00;;;;;;4896591;29;19923;-49
2023/08/16 11:28:34;;;;;;;;;;;23.90;1.00;;;;;;4896741;29;19923;-48
2023/08/16 11:31:02;;;;;;;;;;;23.90;1.00;;;;;;4899818;29;20018;-45
2023/08/16 11:33:31;;;;;;;;;;;23.90;1.00;;;;;;4900369;29;20009;-45
2023/08/16 11:35:59;;;;;;;;;;;23.90;1.00;;;;;;4900003;29;20019;-48
2023/08/16 11:38:27;;;;;;;;;;;23.90;1.00;;;;;;4900120;29;19958;-49
2023/08/16 11:40:54;;;;;;;;;;;23.90;1.00;;;;;;4899853;29;19930;-50
2023/08/16 11:43:27;;;;;;;;;;;23.90;1.00;;;;;;4899987;29;20336;-51
2023/08/16 11:45:54;;;;;;;;;;;23.90;1.00;;;;;;4899823;29;20001;-56
2023/08/16 11:48:24;;;;;;;;;;;23.90;1.00;;;;;;4899804;29;20363;-48
2023/08/16 11:50:51;;;;;;;;;;;23.90;1.00;;;;;;4899859;29;20018;-45
2023/08/16 11:53:18;;;;;;;;;;;23.90;1.00;;;;;;4899865;29;19927;-52
2023/08/16 11:56:04;;;;;;;;;;;23.90;1.00;;;;;;4899753;29;19927;-49
2023/08/16 11:58:42;;;;;;;;;;;23.90;1.00;;;;;;4899998;29;20637;-49
2023/08/16 12:01:11;;;;;;;;;;;23.90;1.00;;;;;;4899594;29;19927;-50
2023/08/16 12:03:38;;;;;;;;;;;23.90;1.00;;;;;;4899759;29;20010;-51
2023/08/16 12:06:06;;;;;;;;;;;23.90;1.00;;;;;;4899479;29;19927;-48
2023/08/16 12:08:32;;;;;;;;;;;23.90;1.00;;;;;;4899462;29;19931;-47
2023/08/16 12:10:59;;;;;;;;;;;23.90;1.00;;;;;;4899361;29;20387;-51
2023/08/16 12:13:26;;;;;;;;;;;23.90;1.00;;;;;;4899749;29;19978;-49
2023/08/16 12:15:53;;;;;;;;;;;23.90;1.00;;;;;;4899563;29;19923;-51
2023/08/16 12:18:20;;;;;;;;;;;23.90;1.00;;;;;;4899288;29;19923;-47
2023/08/16 12:20:50;;;;;;;;;;;23.90;1.00;;;;;;4899295;29;19923;-51
2023/08/16 12:23:17;;;;;;;;;;;23.90;1.00;;;;;;4899328;29;19997;-50
2023/08/16 12:25:44;;;;;;;;;;;23.90;1.00;;;;;;4899196;29;19924;-45
2023/08/16 12:28:11;;;;;;;;;;;23.90;1.00;;;;;;4899085;29;20014;-47
2023/08/16 12:30:38;;;;;;;;;;;23.90;1.00;;;;;;4899121;29;19924;-47
2023/08/16 12:33:05;;;;;;;;;;;23.90;1.00;;;;;;4899004;29;19927;-47
2023/08/16 12:35:32;;;;;;;;;;;23.90;1.00;;;;;;4898926;29;20384;-52
2023/08/16 12:38:02;;;;;;;;;;;23.90;1.00;;;;;;4899052;29;19923;-48
2023/08/16 12:40:30;;;;;;;;;;;23.90;1.00;;;;;;4898922;29;19927;-49
2023/08/16 12:42:57;;;;;;;;;;;23.90;1.00;;;;;;4898993;29;20351;-49
2023/08/16 12:45:24;;;;;;;;;;;23.90;1.00;;;;;;4898592;29;20010;-47
2023/08/16 12:47:50;;;;;;;;;;;23.90;1.00;;;;;;4898808;29;19923;-49
2023/08/16 12:50:17;;;;;;;;;;;23.90;1.00;;;;;;4898748;29;20010;-48
2023/08/16 12:52:44;;;;;;;;;;;23.90;1.00;;;;;;4898729;29;20010;-45
2023/08/16 12:55:11;;;;;;;;;;;23.90;1.00;;;;;;4898540;29;19979;-49
2023/08/16 12:57:38;;;;;;;;;;;23.90;1.00;;;;;;4898806;29;20379;-48
2023/08/16 13:00:11;;;;;;;;;;;23.90;1.00;;;;;;4898592;29;19923;-45
2023/08/16 13:02:39;;;;;;;;;;;23.90;1.00;;;;;;4898546;29;19930;-52
2023/08/16 13:05:07;;;;;;;;;;;23.90;1.00;;;;;;4898567;29;19923;-50
2023/08/16 13:07:37;;;;;;;;;;;23.90;1.00;;;;;;4898359;29;19923;-48
2023/08/16 13:10:08;;;;;;;;;;;23.90;1.00;;;;;;4898402;29;19961;-44
2023/08/16 13:12:49;;;;;;;;;;;24.00;1.00;;;;;;4898692;29;19962;-49
2023/08/16 13:15:19;;;;;;;;;;;24.00;1.00;;;;;;4898327;29;20014;-50
2023/08/16 13:17:48;;;;;;;;;;;24.00;1.00;;;;;;4906177;29;20026;-58
2023/08/16 13:20:35;;;;;;;;;;;24.00;1.00;;;;;;4898154;29;19923;-44
2023/08/16 13:23:05;;;;;;;;;;;24.00;1.00;;;;;;4898245;29;19927;-47
2023/08/16 13:25:34;;;;;;;;;;;24.00;1.00;;;;;;4898033;29;19923;-45
2023/08/16 13:28:06;;;;;;;;;;;24.00;1.00;;;;;;4898148;29;20299;-49
2023/08/16 13:30:46;;;;;;;;;;;24.00;1.00;;;;;;4897919;29;20451;-46
2023/08/16 13:33:16;;;;;;;;;;;24.00;1.00;;;;;;4898037;29;19924;-48
2023/08/16 13:35:56;;;;;;;;;;;24.00;1.00;;;;;;4897798;29;19930;-51
2023/08/16 13:38:30;;;;;;;;;;;24.00;1.00;;;;;;4905794;29;20690;-49
2023/08/16 13:41:00;;;;;;;;;;;24.00;1.00;;;;;;4897578;29;19923;-46
2023/08/16 13:43:29;;;;;;;;;;;24.00;1.00;;;;;;4898156;29;20321;-48
2023/08/16 13:45:58;;;;;;;;;;;24.00;1.00;;;;;;4897819;29;19979;-46
2023/08/16 13:48:25;;;;;;;;;;;24.00;1.00;;;;;;4898077;29;20384;-52
2023/08/16 13:50:52;;;;;;;;;;;24.00;1.00;;;;;;4898932;29;19965;-57
2023/08/16 13:53:18;;;;;;;;;;;24.00;1.00;;;;;;4897365;29;20416;-46
2023/08/16 13:55:45;;;;;;;;;;;24.00;1.00;;;;;;4897446;29;19961;-49
2023/08/16 13:58:12;;;;;;;;;;;24.00;1.00;;;;;;4897454;29;19927;-45
2023/08/16 14:00:39;;;;;;;;;;;24.00;1.00;;;;;;4891702;29;19924;-47
2023/08/16 14:03:06;;;;;;;;;;;24.00;1.00;;;;;;4891700;29;19995;-48
2023/08/16 14:05:32;;;;;;;;;;;24.00;1.00;;;;;;4890148;29;19927;-45
2023/08/16 14:07:59;;;;;;;;;;;24.00;1.00;;;;;;4888820;29;19955;-50
2023/08/16 14:10:26;;;;;;;;;;;24.00;1.00;;;;;;4896790;29;19927;-49
2023/08/16 14:12:53;;;;;;;;;;;24.00;1.00;;;;;;4897463;29;19923;-51
2023/08/16 14:15:19;;;;;;;;;;;24.00;1.00;;;;;;4897214;29;20488;-45
2023/08/16 14:17:46;;;;;;;;;;;24.00;1.00;;;;;;4897301;29;20387;-47
2023/08/16 14:20:13;;;;;;;;;;;24.00;1.00;;;;;;4897293;29;19927;-47
2023/08/16 14:22:39;;;;;;;;;;;24.00;1.00;;;;;;4897218;29;19924;-52
2023/08/16 14:25:06;;;;;;;;;;;24.00;1.00;;;;;;4895975;29;19974;-48
2023/08/16 14:27:35;;;;;;;;;;;24.00;1.00;;;;;;4895957;29;19924;-51
2023/08/16 14:30:01;;;;;;;;;;;24.00;1.00;;;;;;4897323;29;19934;-47
2023/08/16 14:32:28;;;;;;;;;;;24.00;1.00;;;;;;4896745;29;19930;-50
2023/08/16 14:34:56;;;;;;;;;;;24.00;1.00;;;;;;4897108;29;19927;-52